Time;durP1;ratioP1;P1;durP2;ratioP2;P2;SDS_P1;SDS_P2;PMS_P1;PMS_P2;Temp;Humidity;BMP_temperature;BMP_pressure;BME280_temperature;BME280_humidity;BME280_pressure;Samples;Min_cycle;Max_cycle;Signal;HPM_P1;HPM_P2
2021/04/15 00:00:19;;;;;;;5.38;1.85;;;;;;;3.08;59.27;101729.91;5038040;28;20485;-76
2021/04/15 00:02:44;;;;;;;3.38;1.20;;;;;;;3.03;59.45;101727.94;5037735;28;20051;-76
2021/04/15 00:05:12;;;;;;;9.50;1.58;;;;;;;2.97;59.91;101731.19;5030845;28;20132;-76
2021/04/15 00:07:37;;;;;;;6.28;1.50;;;;;;;2.85;59.46;101730.63;5030686;28;20033;-77
2021/04/15 00:10:08;;;;;;;5.90;1.50;;;;;;;2.78;59.64;101733.81;5030791;28;20508;-76
2021/04/15 00:12:33;;;;;;;6.68;1.48;;;;;;;2.73;59.38;101732.72;5029306;28;20136;-76
2021/04/15 00:14:58;;;;;;;7.65;1.70;;;;;;;2.64;59.10;101741.88;5030874;28;20426;-76
2021/04/15 00:17:24;;;;;;;4.75;1.13;;;;;;;2.55;58.89;101738.88;5030771;28;20025;-76
2021/04/15 00:19:49;;;;;;;3.17;1.13;;;;;;;2.48;58.71;101739.41;5030769;28;20429;-76
2021/04/15 00:22:14;;;;;;;7.05;1.42;;;;;;;2.43;59.37;101738.28;5030481;28;20382;-76
2021/04/15 00:24:40;;;;;;;3.63;1.20;;;;;;;2.39;59.26;101739.00;5030629;28;20417;-76
2021/04/15 00:27:05;;;;;;;3.10;1.30;;;;;;;2.32;59.98;101737.81;5030618;28;20512;-77
2021/04/15 00:29:31;;;;;;;3.88;1.00;;;;;;;2.23;60.17;101739.06;5030607;28;20776;-76
2021/04/15 00:31:56;;;;;;;5.32;1.45;;;;;;;2.16;59.71;101741.41;5030409;28;20044;-76
2021/04/15 00:34:21;;;;;;;4.60;1.33;;;;;;;2.11;59.88;101737.69;5038859;28;20080;-76
2021/04/15 00:36:46;;;;;;;3.63;1.25;;;;;;;2.05;60.02;101734.81;5034259;28;20474;-76
2021/04/15 00:39:12;;;;;;;4.72;1.13;;;;;;;2.04;60.21;101740.81;5034106;28;20497;-76
2021/04/15 00:41:37;;;;;;;3.90;1.17;;;;;;;1.96;60.83;101737.88;5033869;28;20029;-76
2021/04/15 00:44:03;;;;;;;3.90;0.98;;;;;;;1.94;60.14;101728.19;5034142;28;20068;-76
2021/04/15 00:47:06;;;;;;;5.20;1.20;;;;;;;1.86;60.52;101735.63;5041045;28;20033;-76
2021/04/15 00:49:57;;;;;;;8.23;1.52;;;;;;;1.86;60.00;101724.31;5019000;28;20045;-76
2021/04/15 00:52:25;;;;;;;3.38;1.10;;;;;;;1.81;60.72;101734.53;5031950;28;20103;-77
2021/04/15 00:54:58;;;;;;;4.38;1.58;;;;;;;1.74;60.28;101728.09;5024570;28;20056;-77
2021/04/15 00:57:29;;;;;;;3.60;1.20;;;;;;;1.76;60.34;101725.59;5033788;28;20026;-76
2021/04/15 00:59:55;;;;;;;4.47;1.20;;;;;;;1.75;60.62;101721.19;5032547;28;20436;-76
2021/04/15 01:02:22;;;;;;;5.03;1.30;;;;;;;1.74;59.99;101728.09;5032071;28;20033;-76
2021/04/15 01:04:56;;;;;;;3.90;1.45;;;;;;;1.71;60.78;101724.47;5033617;28;20508;-76
2021/04/15 01:07:22;;;;;;;5.18;1.30;;;;;;;1.70;61.14;101723.59;5024145;28;20049;-75
2021/04/15 01:09:48;;;;;;;4.90;1.50;;;;;;;1.69;60.63;101728.72;5024212;28;20038;-76
2021/04/15 01:12:21;;;;;;;4.40;1.30;;;;;;;1.64;60.56;101718.06;5033261;28;20040;-76
2021/04/15 01:14:50;;;;;;;3.38;1.10;;;;;;;1.62;61.00;101722.28;5033507;28;20124;-76
2021/04/15 01:17:26;;;;;;;8.20;1.42;;;;;;;1.59;61.28;101724.75;5034349;28;20464;-76
2021/04/15 01:20:06;;;;;;;2.92;1.20;;;;;;;1.52;60.92;101720.09;5033349;28;20033;-76
2021/04/15 01:23:25;;;;;;;3.73;1.47;;;;;;;1.47;61.18;101725.06;5018399;28;20082;-77
2021/04/15 01:26:09;;;;;;;3.03;0.90;;;;;;;1.44;60.99;101721.38;4980123;28;20541;-77
2021/04/15 01:29:08;;;;;;;5.30;1.50;;;;;;;1.39;61.44;101720.25;5023902;28;20124;-75
2021/04/15 01:31:51;;;;;;;3.57;1.27;;;;;;;1.36;61.52;101717.50;5017219;28;20044;-76
2021/04/15 01:34:21;;;;;;;3.53;1.30;;;;;;;1.28;61.99;101715.44;5017997;28;20042;-76
2021/04/15 01:37:00;;;;;;;4.97;1.30;;;;;;;1.23;61.60;101714.31;5023710;28;20098;-77
2021/04/15 01:39:36;;;;;;;4.43;1.58;;;;;;;1.18;62.06;101712.28;5032908;28;20029;-76
2021/04/15 01:42:11;;;;;;;4.43;1.40;;;;;;;1.12;62.48;101715.44;5031420;28;20045;-76
2021/04/15 01:44:44;;;;;;;3.30;1.00;;;;;;;1.06;62.49;101721.25;5040104;28;20044;-76
2021/04/15 01:47:17;;;;;;;5.37;1.90;;;;;;;1.06;62.28;101721.25;5031738;28;20037;-77
2021/04/15 01:49:49;;;;;;;3.53;1.48;;;;;;;1.03;62.99;101720.19;5032801;28;20481;-76
2021/04/15 01:52:16;;;;;;;;;;;;;;;0.93;63.04;101712.75;5032881;28;20121;-77
2021/04/15 01:54:53;;;;;;;4.13;1.83;;;;;;;0.94;63.27;101717.09;5032714;28;19920;-76
2021/04/15 01:57:28;;;;;;;3.23;1.20;;;;;;;0.88;63.92;101715.97;5032723;28;20095;-76
2021/04/15 02:00:06;;;;;;;3.97;1.17;;;;;;;0.84;63.07;101719.25;5032622;28;20563;-76
2021/04/15 02:02:43;;;;;;;4.00;1.63;;;;;;;0.82;63.26;101713.06;5019078;28;20405;-76
2021/04/15 02:05:26;;;;;;;3.50;1.27;;;;;;;0.78;63.64;101718.91;5039732;28;20045;-77
2021/04/15 02:07:56;;;;;;;4.35;1.00;;;;;;;0.77;63.66;101717.13;5031085;28;20553;-76
2021/04/15 02:10:23;;;;;;;4.43;1.40;;;;;;;0.72;64.18;101716.00;5032292;28;20049;-76
2021/04/15 02:12:51;;;;;;;4.80;1.80;;;;;;;0.65;64.99;101725.19;5032093;28;20039;-76
2021/04/15 02:15:28;;;;;;;6.17;1.70;;;;;;;0.62;64.49;101722.41;5032246;28;20037;-76
2021/04/15 02:18:01;;;;;;;4.73;1.57;;;;;;;0.61;64.91;101727.53;5032292;28;20419;-76
2021/04/15 02:20:28;;;;;;;4.47;1.63;;;;;;;0.60;64.80;101724.06;5015994;28;20049;-76
2021/04/15 02:23:15;;;;;;;7.47;1.70;;;;;;;0.57;65.82;101720.38;5030432;28;20061;-77
2021/04/15 02:25:55;;;;;;;4.40;1.70;;;;;;;0.56;64.94;101724.69;5019560;28;20048;-76
2021/04/15 02:28:31;;;;;;;4.07;1.30;;;;;;;0.56;65.68;101716.91;5032116;28;20063;-77
2021/04/15 02:31:06;;;;;;;4.37;1.57;;;;;;;0.59;65.51;101730.03;5032041;28;20394;-76
2021/04/15 02:33:50;;;;;;;3.77;1.50;;;;;;;0.55;65.27;101720.31;5027974;28;20038;-77
2021/04/15 02:36:17;;;;;;;5.07;1.30;;;;;;;0.54;65.23;101722.81;5030529;28;20047;-76
2021/04/15 02:39:21;;;;;;;6.23;1.70;;;;;;;0.49;65.56;101724.28;5031614;28;20496;-77
2021/04/15 02:41:49;;;;;;;3.90;1.67;;;;;;;0.49;65.77;101713.88;4978499;28;20039;-76
2021/04/15 02:44:26;;;;;;;7.60;1.50;;;;;;;0.52;65.55;101727.03;5018830;28;20646;-77
2021/04/15 02:46:57;;;;;;;5.73;1.83;;;;;;;0.52;65.87;101721.84;5031592;28;20037;-77
2021/04/15 02:49:26;;;;;;;3.20;1.20;;;;;;;0.51;65.87;101725.25;5031689;28;20037;-77
2021/04/15 02:52:12;;;;;;;5.13;1.50;;;;;;;0.52;66.04;101727.03;5031437;28;20481;-77
2021/04/15 02:54:44;;;;;;;3.77;1.43;;;;;;;0.50;65.81;101721.78;5018347;28;20508;-77
2021/04/15 02:57:19;;;;;;;3.63;1.40;;;;;;;0.53;65.23;101721.03;5031300;28;20038;-77
2021/04/15 02:59:52;;;;;;;4.73;1.80;;;;;;;0.50;65.78;101721.78;5022152;28;20432;-77
2021/04/15 03:02:35;;;;;;;8.80;2.80;;;;;;;0.51;66.18;101718.34;5031227;28;20477;-77
2021/04/15 03:05:09;;;;;;;8.20;3.33;;;;;;;0.50;66.24;101720.84;5031571;28;20029;-77
2021/04/15 03:07:37;;;;;;;12.07;4.87;;;;;;;0.49;65.66;101717.38;5017203;28;20041;-76
2021/04/15 03:10:07;;;;;;;12.73;4.27;;;;;;;0.51;65.52;101717.47;5017864;28;20046;-77
2021/04/15 03:12:45;;;;;;;7.17;2.90;;;;;;;0.49;66.66;101721.69;5029780;28;20060;-76
2021/04/15 03:15:22;;;;;;;6.20;2.20;;;;;;;0.45;66.01;101718.03;5031396;28;20397;-76
2021/04/15 03:17:54;;;;;;;7.47;2.10;;;;;;;0.41;66.16;101726.47;5031205;28;20037;-77
2021/04/15 03:20:42;;;;;;;5.10;1.50;;;;;;;0.33;67.11;101723.44;5038447;28;20072;-76
2021/04/15 03:23:21;;;;;;;5.73;2.03;;;;;;;0.32;67.15;101729.47;5030929;28;20037;-76
2021/04/15 03:25:49;;;;;;;6.33;2.47;;;;;;;0.29;67.53;101725.78;5030095;28;20076;-76
2021/04/15 03:28:20;;;;;;;3.43;1.50;;;;;;;0.33;67.74;101727.75;5031107;28;20037;-76
2021/04/15 03:30:53;;;;;;;5.03;1.57;;;;;;;0.34;67.73;101725.25;5030978;28;20034;-76
2021/04/15 03:33:29;;;;;;;4.77;1.87;;;;;;;0.39;67.35;101734.19;5021536;28;20045;-76
2021/04/15 03:36:37;;;;;;;4.93;1.60;;;;;;;0.42;67.67;101728.25;5031088;28;20147;-75
2021/04/15 03:39:07;;;;;;;8.50;2.80;;;;;;;0.50;67.14;101731.25;4961837;28;20100;-76
2021/04/15 03:41:39;;;;;;;8.27;3.97;;;;;;;0.50;66.94;101737.34;4981296;28;20533;-76
2021/04/15 03:44:09;;;;;;;7.77;4.20;;;;;;;0.53;66.95;101736.63;5004947;28;20049;-76
2021/04/15 03:46:43;;;;;;;6.17;2.60;;;;;;;0.52;67.68;101733.13;5029680;28;20565;-76
2021/04/15 03:49:15;;;;;;;4.67;2.10;;;;;;;0.55;67.66;101734.97;5029626;28;20469;-76
2021/04/15 03:51:47;;;;;;;7.60;3.10;;;;;;;0.54;67.89;101735.81;5030459;28;20107;-76
2021/04/15 03:54:17;;;;;;;4.97;1.98;;;;;;;0.53;67.34;101737.53;5013610;28;20042;-76
2021/04/15 03:56:53;;;;;;;6.37;2.30;;;;;;;0.54;67.80;101738.41;5016357;28;20483;-76
2021/04/15 03:59:42;;;;;;;5.10;2.40;;;;;;;0.51;67.86;101733.94;5021502;28;20042;-78
2021/04/15 04:02:42;;;;;;;6.43;2.73;;;;;;;0.50;68.25;101741.63;5030783;28;20034;-76
2021/04/15 04:05:13;;;;;;;6.20;2.30;;;;;;;0.49;68.27;101735.56;5010841;28;20490;-77
2021/04/15 04:07:43;;;;;;;4.87;2.10;;;;;;;0.52;68.27;101732.22;5030610;28;20107;-76
2021/04/15 04:10:20;;;;;;;5.57;2.00;;;;;;;0.50;68.37;101733.84;5033272;28;20041;-77
2021/04/15 04:12:59;;;;;;;4.80;2.37;;;;;;;0.52;67.54;101745.22;5034296;28;20037;-76
2021/04/15 04:15:30;;;;;;;5.70;2.20;;;;;;;0.55;67.93;101740.19;5025298;28;20040;-76
2021/04/15 04:18:02;;;;;;;6.00;2.50;;;;;;;0.57;67.96;101743.75;5033721;28;20120;-76
2021/04/15 04:20:33;;;;;;;5.73;2.83;;;;;;;0.59;67.86;101743.03;5018742;28;20037;-77
2021/04/15 04:23:08;;;;;;;6.07;2.47;;;;;;;0.60;68.07;101744.84;5008485;28;20136;-76
2021/04/15 04:25:45;;;;;;;5.40;2.80;;;;;;;0.58;67.97;101741.25;5009400;28;20068;-76
2021/04/15 04:28:38;;;;;;;4.87;2.43;;;;;;;0.59;67.71;101750.81;5012979;28;20088;-76
2021/04/15 04:31:12;;;;;;;6.40;2.33;;;;;;;0.65;68.32;101748.56;4998250;28;20555;-76
2021/04/15 04:33:45;;;;;;;5.30;2.63;;;;;;;0.69;68.31;101747.03;5034014;28;20037;-76
2021/04/15 04:36:13;;;;;;;5.83;2.40;;;;;;;0.74;67.47;101755.97;5041362;28;20045;-76
2021/04/15 04:38:38;;;;;;;6.40;2.70;;;;;;;0.75;67.78;101760.31;5034313;28;20029;-77
2021/04/15 04:41:10;;;;;;;5.40;2.17;;;;;;;0.76;67.54;101751.75;5034103;28;20040;-76
2021/04/15 04:43:50;;;;;;;8.27;3.03;;;;;;;0.74;67.87;101755.97;5033948;28;20037;-76
2021/04/15 04:46:31;;;;;;;9.13;2.80;;;;;;;0.79;67.70;101757.09;5033912;28;20045;-77
2021/04/15 04:49:10;;;;;;;5.90;2.27;;;;;;;0.79;67.69;101751.91;5033888;28;20037;-76
2021/04/15 04:51:47;;;;;;;7.00;2.43;;;;;;;0.83;67.90;101759.03;5019704;28;20033;-76
2021/04/15 04:54:16;;;;;;;4.43;2.13;;;;;;;0.87;67.93;101760.09;5034700;28;20033;-79
2021/04/15 04:56:47;;;;;;;5.30;2.40;;;;;;;0.91;67.50;101759.44;5041131;28;20072;-77
2021/04/15 04:59:21;;;;;;;4.40;2.13;;;;;;;0.96;67.13;101764.88;5024568;28;20447;-76
2021/04/15 05:01:47;;;;;;;6.30;2.13;;;;;;;1.00;67.82;101759.03;5013357;28;20083;-75
2021/04/15 05:04:12;;;;;;;4.40;2.80;;;;;;;1.02;67.62;101760.91;5004356;28;20087;-76
2021/04/15 05:06:45;;;;;;;5.50;2.47;;;;;;;1.09;67.66;101764.72;5024055;28;20044;-76
2021/04/15 05:09:10;;;;;;;;;;;;;;;1.07;66.96;101762.03;5033770;28;20045;-76
2021/04/15 05:11:39;;;;;;;7.83;3.80;;;;;;;1.12;67.62;101766.56;5042803;28;20008;-76
2021/04/15 05:14:06;;;;;;;4.97;2.33;;;;;;;1.20;66.87;101763.53;5033216;28;20532;-75
2021/04/15 05:16:43;;;;;;;5.20;2.20;;;;;;;1.27;67.21;101765.66;5031933;28;20029;-76
2021/04/15 05:19:09;;;;;;;6.28;3.00;;;;;;;1.28;67.52;101770.06;5033127;28;20485;-76
2021/04/15 05:21:35;;;;;;;5.47;2.47;;;;;;;1.37;66.96;101763.53;5032775;28;20045;-76
2021/04/15 05:24:18;;;;;;;5.40;2.78;;;;;;;1.38;67.30;101770.50;5033212;28;20025;-75
2021/04/15 05:26:45;;;;;;;6.00;2.77;;;;;;;1.40;67.43;101768.88;5021932;28;20033;-76
2021/04/15 05:29:27;;;;;;;7.37;2.57;;;;;;;1.53;66.79;101771.28;5032916;28;20049;-76
2021/04/15 05:31:54;;;;;;;5.28;2.20;;;;;;;1.56;67.18;101761.03;5023270;28;20041;-76
2021/04/15 05:34:22;;;;;;;7.85;3.20;;;;;;;1.61;66.95;101764.75;5031186;28;20029;-76
2021/04/15 05:36:50;;;;;;;5.30;2.43;;;;;;;1.56;66.65;101763.63;5011114;28;20021;-76
2021/04/15 05:39:18;;;;;;;7.55;3.28;;;;;;;1.63;66.86;101764.84;5032507;28;20544;-76
2021/04/15 05:42:01;;;;;;;5.95;2.67;;;;;;;1.72;66.89;101766.19;5018783;28;20086;-76
2021/04/15 05:44:41;;;;;;;;;;;;;;;1.71;66.86;101769.59;5020486;28;20045;-76
2021/04/15 05:47:13;;;;;;;9.45;3.25;;;;;;;1.80;66.77;101765.66;5025962;28;19925;-76
2021/04/15 05:49:44;;;;;;;5.90;2.67;;;;;;;1.84;66.19;101767.63;5014681;28;20057;-75
2021/04/15 05:52:43;;;;;;;9.95;3.05;;;;;;;1.85;66.72;101769.38;5021567;28;20029;-76
2021/04/15 05:55:16;;;;;;;8.25;3.20;;;;;;;2.00;66.27;101771.84;5030475;28;20064;-75
2021/04/15 05:57:46;;;;;;;9.32;3.60;;;;;;;2.10;66.41;101767.16;5019324;28;20033;-75
2021/04/15 06:00:15;;;;;;;6.35;2.97;;;;;;;2.19;66.09;101772.78;5028299;28;20037;-76
2021/04/15 06:02:59;;;;;;;7.68;3.25;;;;;;;2.28;65.21;101768.84;5030292;28;20409;-76
2021/04/15 06:05:32;;;;;;;9.73;3.80;;;;;;;2.34;66.13;101764.81;5030581;28;20044;-75
2021/04/15 06:08:02;;;;;;;6.28;3.40;;;;;;;2.49;64.90;101766.34;5008050;28;20037;-76
2021/04/15 06:10:29;;;;;;;6.93;3.40;;;;;;;2.62;64.98;101768.72;5020292;28;20041;-76
2021/04/15 06:13:05;;;;;;;10.05;3.25;;;;;;;2.71;64.58;101774.34;5003746;28;20132;-76
2021/04/15 06:15:39;;;;;;;7.13;3.42;;;;;;;2.70;64.13;101766.44;5015166;28;20045;-76
2021/04/15 06:18:19;;;;;;;7.60;3.17;;;;;;;2.76;64.50;101771.94;5030678;28;20029;-76
2021/04/15 06:20:48;;;;;;;6.68;3.15;;;;;;;2.84;64.83;101775.78;5030450;28;20036;-76
2021/04/15 06:23:28;;;;;;;6.55;3.42;;;;;;;2.91;63.55;101772.66;5030827;28;20052;-76
2021/04/15 06:25:55;;;;;;;7.15;3.35;;;;;;;2.99;64.21;101773.00;5038741;28;20494;-76
2021/04/15 06:28:27;;;;;;;4.95;2.85;;;;;;;3.13;64.15;101776.19;5031522;28;20033;-76
2021/04/15 06:31:01;;;;;;;10.05;3.55;;;;;;;3.19;63.44;101776.44;5031750;28;20037;-76
2021/04/15 06:33:27;;;;;;;8.40;3.28;;;;;;;3.31;62.77;101777.00;5034548;28;20064;-76
2021/04/15 06:35:55;;;;;;;5.20;2.63;;;;;;;3.34;62.81;101776.25;5027137;28;20040;-76
2021/04/15 06:38:36;;;;;;;5.90;3.08;;;;;;;3.27;63.22;101775.06;5031571;28;20036;-76
2021/04/15 06:41:16;;;;;;;7.40;3.20;;;;;;;3.47;63.50;101770.72;5030155;28;20038;-76
2021/04/15 06:44:09;;;;;;;6.78;3.05;;;;;;;3.57;62.64;101764.19;5028857;28;20038;-76
2021/04/15 06:47:26;;;;;;;10.32;3.05;;;;;;;3.58;62.85;101765.94;5038595;28;20040;-76
2021/04/15 06:50:13;;;;;;;8.07;3.40;;;;;;;3.66;62.93;101765.44;5000702;28;20644;-76
2021/04/15 06:53:12;;;;;;;8.25;2.65;;;;;;;3.81;62.67;101759.97;5017861;28;20037;-76
2021/04/15 06:56:02;;;;;;;8.98;2.70;;;;;;;3.98;62.13;101749.28;5017932;28;20029;-76
2021/04/15 06:58:42;;;;;;;5.15;2.85;;;;;;;4.07;62.10;101754.91;5034990;28;20474;-76
2021/04/15 07:01:26;;;;;;;5.55;2.38;;;;;;;4.08;61.51;101752.34;5034577;28;20080;-76
2021/04/15 07:04:07;;;;;;;6.68;3.00;;;;;;;4.27;61.28;101755.66;5008182;28;20065;-76
2021/04/15 07:06:42;;;;;;;6.68;3.15;;;;;;;4.26;61.31;101756.50;5020843;28;20071;-76
2021/04/15 07:09:34;;;;;;;7.25;3.30;;;;;;;4.42;61.00;101756.28;5023123;28;20084;-75
2021/04/15 07:12:27;;;;;;;6.80;2.67;;;;;;;4.65;60.08;101756.25;5028898;28;20046;-76
2021/04/15 07:15:30;;;;;;;6.53;2.78;;;;;;;4.72;59.99;101743.47;5013313;28;20627;-76
2021/04/15 07:18:25;;;;;;;6.05;2.40;;;;;;;4.71;60.30;101744.28;5003360;28;20528;-76
2021/04/15 07:21:26;;;;;;;4.88;2.90;;;;;;;4.91;59.77;101749.38;5007698;28;20620;-76
2021/04/15 07:24:19;;;;;;;6.07;2.88;;;;;;;5.08;59.66;101744.75;5027797;28;20057;-76
2021/04/15 07:27:03;;;;;;;6.35;2.35;;;;;;;5.39;58.77;101744.09;5042719;28;20053;-78
2021/04/15 07:29:42;;;;;;;4.93;2.20;;;;;;;5.44;58.41;101751.25;5032252;28;20496;-78
2021/04/15 07:32:32;;;;;;;7.45;2.55;;;;;;;5.41;58.37;101745.03;5031369;28;20754;-77
2021/04/15 07:35:30;;;;;;;6.93;2.95;;;;;;;5.51;57.88;101752.38;5027965;28;20116;-77
2021/04/15 07:38:09;;;;;;;8.43;2.83;;;;;;;5.46;57.89;101751.31;4987748;28;20053;-78
2021/04/15 07:40:43;;;;;;;6.70;3.17;;;;;;;5.47;57.10;101746.13;5031410;28;20096;-78
2021/04/15 07:43:48;;;;;;;5.22;2.35;;;;;;;5.57;56.92;101751.69;5020599;28;20494;-77
2021/04/15 07:46:36;;;;;;;7.85;2.90;;;;;;;5.55;57.61;101746.38;5034678;28;20042;-78
2021/04/15 07:49:17;;;;;;;5.72;3.08;;;;;;;5.85;56.53;101751.75;5030406;28;20512;-78
2021/04/15 07:52:21;;;;;;;6.35;2.42;;;;;;;5.89;56.01;101747.50;5022717;28;20041;-78
2021/04/15 07:54:52;;;;;;;6.20;3.08;;;;;;;5.95;55.77;101745.13;5035168;28;20044;-78
2021/04/15 07:57:33;;;;;;;6.65;2.70;;;;;;;5.89;54.81;101743.19;5035567;28;20059;-78
2021/04/15 08:00:49;;;;;;;7.63;2.78;;;;;;;5.85;56.24;101758.75;5036734;28;20104;-78
2021/04/15 08:03:47;;;;;;;5.97;2.33;;;;;;;5.82;54.49;101749.03;5004301;28;20115;-78
2021/04/15 08:06:47;;;;;;;5.50;1.90;;;;;;;6.02;53.21;101754.06;5044229;28;20037;-78
2021/04/15 08:09:28;;;;;;;4.70;2.13;;;;;;;5.82;53.02;101750.78;5036300;28;20052;-78
2021/04/15 08:12:03;;;;;;;5.40;2.45;;;;;;;5.76;53.48;101745.31;5026481;28;20033;-78
2021/04/15 08:14:47;;;;;;;4.53;1.88;;;;;;;5.94;53.49;101759.06;5022889;28;20652;-78
2021/04/15 08:17:23;;;;;;;5.00;2.15;;;;;;;6.03;53.74;101754.13;5036196;28;20065;-78
2021/04/15 08:20:14;;;;;;;4.43;1.52;;;;;;;6.18;53.03;101755.44;5037805;28;20520;-78
2021/04/15 08:22:58;;;;;;;5.40;1.88;;;;;;;6.09;50.76;101754.31;5022826;28;20034;-78
2021/04/15 08:25:32;;;;;;;5.03;1.77;;;;;;;6.00;52.02;101760.97;5043982;28;20063;-78
2021/04/15 08:28:38;;;;;;;5.00;1.77;;;;;;;5.88;53.12;101751.84;5038244;28;20035;-78
2021/04/15 08:31:17;;;;;;;3.92;1.95;;;;;;;6.01;51.73;101761.03;5038702;28;20033;-78
2021/04/15 08:33:57;;;;;;;6.85;1.65;;;;;;;6.11;51.49;101759.63;5038007;28;20037;-78
2021/04/15 08:36:51;;;;;;;4.53;1.65;;;;;;;6.09;50.44;101751.69;5028806;28;20113;-78
2021/04/15 08:39:37;;;;;;;4.45;1.80;;;;;;;6.28;50.55;101747.00;5037983;28;20136;-78
2021/04/15 08:42:10;;;;;;;3.10;1.40;;;;;;;6.42;50.40;101748.34;5045499;28;20038;-78
2021/04/15 08:44:52;;;;;;;3.53;1.50;;;;;;;6.46;50.31;101755.44;5024612;28;20041;-78
2021/04/15 08:47:43;;;;;;;3.70;1.40;;;;;;;6.24;51.20;101751.28;5038089;28;20128;-78
2021/04/15 08:50:16;;;;;;;6.82;1.75;;;;;;;6.40;51.06;101755.28;5037920;28;20076;-78
2021/04/15 08:52:47;;;;;;;3.70;1.23;;;;;;;6.71;51.54;101754.44;5037712;28;20037;-78
2021/04/15 08:55:20;;;;;;;5.60;2.00;;;;;;;6.98;50.35;101748.22;5011490;28;20123;-78
2021/04/15 08:58:15;;;;;;;4.28;1.90;;;;;;;7.20;49.06;101744.41;5037839;28;20041;-78
2021/04/15 09:00:47;;;;;;;3.42;1.45;;;;;;;7.08;47.58;101754.63;5011005;28;20034;-78
2021/04/15 09:03:22;;;;;;;5.03;1.73;;;;;;;6.95;48.37;101754.25;5031645;28;20076;-78
2021/04/15 09:06:17;;;;;;;4.40;2.00;;;;;;;6.97;48.03;101752.56;5018087;28;20033;-78
2021/04/15 09:08:52;;;;;;;5.50;1.55;;;;;;;7.06;47.59;101745.81;5020026;28;20045;-78
2021/04/15 09:11:31;;;;;;;3.72;1.52;;;;;;;7.01;48.10;101743.91;5028099;28;20109;-78
2021/04/15 09:14:13;;;;;;;3.00;1.63;;;;;;;6.93;48.41;101750.69;5027031;28;20038;-78
2021/04/15 09:16:43;;;;;;;5.07;1.63;;;;;;;6.87;48.58;101740.03;5016752;28;20031;-78
2021/04/15 09:19:38;;;;;;;3.67;1.38;;;;;;;7.32;48.04;101736.88;5021875;28;20294;-78
2021/04/15 09:22:29;;;;;;;2.92;1.40;;;;;;;7.29;45.70;101730.66;5019097;28;20034;-78
2021/04/15 09:25:20;;;;;;;3.75;1.10;;;;;;;7.27;45.10;101740.25;5025588;28;20041;-78
2021/04/15 09:27:55;;;;;;;3.53;1.55;;;;;;;7.25;47.04;101735.81;5024337;28;20056;-78
2021/04/15 09:30:48;;;;;;;3.95;1.40;;;;;;;7.61;45.81;101729.75;5035984;28;20163;-78
2021/04/15 09:33:26;;;;;;;;;;;;;;;7.98;45.78;101735.00;5036739;28;20103;-78
2021/04/15 09:36:01;;;;;;;2.88;1.38;;;;;;;7.92;46.09;101727.00;5036108;28;19927;-78
2021/04/15 09:38:54;;;;;;;4.13;1.30;;;;;;;7.80;46.47;101730.19;5018395;28;20045;-78
2021/04/15 09:41:45;;;;;;;5.38;1.63;;;;;;;7.84;45.69;101718.94;5020024;28;20035;-78
2021/04/15 09:44:10;;;;;;;4.15;1.40;;;;;;;7.85;46.21;101731.19;5018190;28;20069;-78
2021/04/15 09:46:47;;;;;;;3.80;1.20;;;;;;;7.68;45.04;101722.91;5035002;28;20108;-77
2021/04/15 09:49:53;;;;;;;3.30;1.40;;;;;;;7.87;44.43;101722.50;5035088;28;20038;-78
2021/04/15 09:52:27;;;;;;;3.45;1.23;;;;;;;7.92;44.76;101721.75;4991970;28;20051;-78
2021/04/15 09:54:59;;;;;;;2.40;1.00;;;;;;;8.30;43.31;101710.31;5035023;28;20065;-78
2021/04/15 09:57:32;;;;;;;2.70;0.90;;;;;;;8.30;42.21;101705.06;5042104;28;20449;-78
2021/04/15 10:00:16;;;;;;;2.25;0.82;;;;;;;8.27;42.67;101694.47;5035661;28;20037;-78
2021/04/15 10:02:51;;;;;;;4.82;1.75;;;;;;;8.86;42.63;101701.00;5025884;28;20045;-79
2021/04/15 10:05:33;;;;;;;2.85;1.30;;;;;;;9.35;41.81;101709.78;5019685;28;20042;-78
2021/04/15 10:08:07;;;;;;;2.33;1.15;;;;;;;8.98;41.99;101706.50;5004553;28;20038;-79
2021/04/15 10:10:43;;;;;;;3.83;1.20;;;;;;;8.89;41.34;101703.69;5016269;28;20512;-79
2021/04/15 10:13:31;;;;;;;1.83;0.80;;;;;;;8.82;40.96;101696.53;5035994;28;20076;-79
2021/04/15 10:16:25;;;;;;;3.58;1.67;;;;;;;9.02;38.96;101697.81;5015086;28;20096;-78
2021/04/15 10:19:36;;;;;;;3.97;1.13;;;;;;;9.60;39.54;101692.66;5017385;28;20123;-79
2021/04/15 10:22:12;;;;;;;2.55;0.80;;;;;;;9.31;37.63;101689.53;5041844;28;20041;-79
2021/04/15 10:24:43;;;;;;;3.05;1.00;;;;;;;9.18;38.56;101686.69;5025371;28;20041;-78
2021/04/15 10:27:18;;;;;;;6.70;1.25;;;;;;;8.95;38.45;101685.38;5033760;28;20046;-79
2021/04/15 10:30:02;;;;;;;2.53;0.98;;;;;;;8.78;37.42;101683.31;5043169;28;20037;-79
2021/04/15 10:32:40;;;;;;;2.60;1.10;;;;;;;9.16;36.84;101684.88;5038692;28;20410;-80
2021/04/15 10:35:27;;;;;;;2.78;0.70;;;;;;;9.14;36.88;101686.59;5042149;28;20400;-78
2021/04/15 10:38:36;;;;;;;3.33;0.70;;;;;;;8.95;36.51;101681.00;5040219;28;20128;-79
2021/04/15 10:41:39;;;;;;;1.67;0.70;;;;;;;8.61;39.01;101684.72;5044976;28;20033;-79
2021/04/15 10:44:24;;;;;;;4.28;1.33;;;;;;;7.98;40.11;101685.94;5040174;28;20043;-79
2021/04/15 10:47:15;;;;;;;2.50;0.90;;;;;;;7.86;41.85;101696.19;5042287;28;20064;-79
2021/04/15 10:49:56;;;;;;;3.08;1.33;;;;;;;7.52;42.98;101690.13;5028806;28;20525;-78
2021/04/15 10:52:36;;;;;;;4.13;1.40;;;;;;;7.56;44.35;101698.97;5038641;28;20089;-79
2021/04/15 10:55:14;;;;;;;3.78;1.80;;;;;;;7.58;44.58;101687.63;5037861;28;20034;-79
2021/04/15 10:57:39;;;;;;;4.13;1.75;;;;;;;7.89;44.75;101686.63;5031474;28;20042;-79
2021/04/15 11:00:30;;;;;;;3.47;1.85;;;;;;;8.22;44.34;101690.88;5036843;28;20037;-79
2021/04/15 11:03:18;;;;;;;8.15;3.25;;;;;;;8.31;45.40;101675.31;5036957;28;20085;-78
2021/04/15 11:05:46;;;;;;;4.28;1.40;;;;;;;8.54;44.70;101678.44;5033089;28;20084;-78
2021/04/15 11:08:27;;;;;;;5.47;2.03;;;;;;;8.67;44.71;101684.84;5032461;28;20042;-78
2021/04/15 11:11:15;;;;;;;5.20;1.58;;;;;;;8.57;44.34;101693.41;5008299;28;20124;-78
2021/04/15 11:13:41;;;;;;;3.83;1.35;;;;;;;7.74;45.46;101696.78;5021059;28;20397;-78
2021/04/15 11:16:21;;;;;;;3.13;1.40;;;;;;;7.12;46.18;101699.59;5034992;28;20112;-78
2021/04/15 11:18:47;;;;;;;3.40;1.52;;;;;;;7.18;46.24;101694.50;5042225;28;20508;-78
2021/04/15 11:21:24;;;;;;;3.42;1.50;;;;;;;7.42;44.04;101685.50;5035028;28;20033;-78
2021/04/15 11:23:53;;;;;;;5.43;2.40;;;;;;;7.62;44.33;101673.75;5033698;28;20045;-78
2021/04/15 11:26:29;;;;;;;5.97;2.75;;;;;;;7.98;42.42;101682.44;5033017;28;20034;-78
2021/04/15 11:28:58;;;;;;;4.20;1.63;;;;;;;8.24;42.55;101689.16;5022925;28;20037;-78
2021/04/15 11:31:38;;;;;;;2.58;1.10;;;;;;;8.12;44.26;101689.78;5034433;28;20041;-78
2021/04/15 11:34:13;;;;;;;2.88;1.25;;;;;;;7.86;44.03;101676.06;5025304;28;20116;-78
2021/04/15 11:37:04;;;;;;;2.92;1.23;;;;;;;7.82;45.63;101686.44;5018129;28;20034;-78
2021/04/15 11:39:38;;;;;;;2.45;1.05;;;;;;;7.65;45.03;101683.41;5019550;28;20072;-79
2021/04/15 11:42:09;;;;;;;4.88;1.33;;;;;;;7.79;43.28;101676.75;5014824;28;20685;-78
2021/04/15 11:44:50;;;;;;;3.67;1.08;;;;;;;7.72;43.18;101682.72;5036328;28;20175;-78
2021/04/15 11:47:26;;;;;;;2.20;0.82;;;;;;;8.06;42.34;101683.50;5033848;28;20040;-78
2021/04/15 11:50:05;;;;;;;2.60;1.17;;;;;;;8.24;43.20;101662.88;5018264;28;20034;-78
2021/04/15 11:52:38;;;;;;;2.80;1.00;;;;;;;8.60;41.50;101667.16;5013618;28;20038;-79
2021/04/15 11:55:25;;;;;;;3.17;0.88;;;;;;;8.41;40.99;101668.53;5030700;28;20040;-78
2021/04/15 11:58:02;;;;;;;2.55;1.10;;;;;;;8.67;41.10;101669.06;5034207;28;20409;-78
2021/04/15 12:00:34;;;;;;;3.72;1.00;;;;;;;8.38;41.36;101672.78;5022325;28;20041;-78
2021/04/15 12:02:59;;;;;;;3.97;1.30;;;;;;;8.22;42.95;101666.31;5028002;28;20041;-78
2021/04/15 12:05:29;;;;;;;3.55;1.55;;;;;;;8.53;43.03;101675.78;5018164;28;20036;-78
2021/04/15 12:08:22;;;;;;;4.65;2.13;;;;;;;8.52;43.11;101663.50;5022889;28;20124;-78
2021/04/15 12:10:56;;;;;;;2.75;1.02;;;;;;;8.53;43.35;101666.13;5023236;28;20067;-78
2021/04/15 12:13:27;;;;;;;4.50;1.23;;;;;;;8.89;43.50;101675.63;5031852;28;20446;-78
2021/04/15 12:15:59;;;;;;;3.30;1.20;;;;;;;8.51;43.51;101666.94;5038935;28;20036;-79
2021/04/15 12:18:37;;;;;;;2.85;1.20;;;;;;;8.58;43.85;101662.72;5038549;28;20504;-78
2021/04/15 12:21:30;;;;;;;3.10;1.00;;;;;;;8.77;44.58;101652.56;5031363;28;20053;-78
2021/04/15 12:24:19;;;;;;;;;;;;;;;8.74;44.26;101654.25;5026959;28;20042;-79